sensor_id;sensor_type;location;lat;lon;timestamp;P1;durP1;ratioP1;P2;durP2;ratioP2
75737;SDS011;64356;45.638;13.764;2023-04-10T00:01:00;1.50;;;1.40;;
75737;SDS011;64356;45.638;13.764;2023-04-10T00:03:26;1.42;;;1.33;;
75737;SDS011;64356;45.638;13.764;2023-04-10T00:05:52;1.63;;;1.52;;
75737;SDS011;64356;45.638;13.764;2023-04-10T00:08:23;1.50;;;1.40;;
75737;SDS011;64356;45.638;13.764;2023-04-10T00:10:49;1.40;;;1.30;;
75737;SDS011;64356;45.638;13.764;2023-04-10T00:13:15;1.73;;;1.63;;
75737;SDS011;64356;45.638;13.764;2023-04-10T00:15:41;1.15;;;1.15;;
75737;SDS011;64356;45.638;13.764;2023-04-10T00:18:07;1.60;;;1.50;;
75737;SDS011;64356;45.638;13.764;2023-04-10T00:20:33;1.40;;;1.30;;
75737;SDS011;64356;45.638;13.764;2023-04-10T00:22:58;1.73;;;1.63;;
75737;SDS011;64356;45.638;13.764;2023-04-10T00:25:24;2.28;;;1.70;;
75737;SDS011;64356;45.638;13.764;2023-04-10T00:27:50;1.67;;;1.52;;
75737;SDS011;64356;45.638;13.764;2023-04-10T00:30:20;1.30;;;1.20;;
75737;SDS011;64356;45.638;13.764;2023-04-10T00:32:46;1.17;;;1.13;;
75737;SDS011;64356;45.638;13.764;2023-04-10T00:35:11;1.50;;;1.40;;
75737;SDS011;64356;45.638;13.764;2023-04-10T00:37:37;1.42;;;1.33;;
75737;SDS011;64356;45.638;13.764;2023-04-10T00:40:03;1.60;;;1.50;;
75737;SDS011;64356;45.638;13.764;2023-04-10T00:42:30;1.67;;;1.58;;
75737;SDS011;64356;45.638;13.764;2023-04-10T00:44:56;1.58;;;1.48;;
75737;SDS011;64356;45.638;13.764;2023-04-10T00:47:22;1.77;;;1.67;;
75737;SDS011;64356;45.638;13.764;2023-04-10T00:49:47;1.83;;;1.60;;
75737;SDS011;64356;45.638;13.764;2023-04-10T00:52:14;1.40;;;1.30;;
75737;SDS011;64356;45.638;13.764;2023-04-10T00:54:40;1.40;;;1.30;;
75737;SDS011;64356;45.638;13.764;2023-04-10T00:57:06;1.15;;;1.15;;
75737;SDS011;64356;45.638;13.764;2023-04-10T00:59:32;1.45;;;1.35;;
75737;SDS011;64356;45.638;13.764;2023-04-10T01:02:00;1.48;;;1.38;;
75737;SDS011;64356;45.638;13.764;2023-04-10T01:04:26;1.45;;;1.35;;
75737;SDS011;64356;45.638;13.764;2023-04-10T01:12:29;1.40;;;1.30;;
75737;SDS011;64356;45.638;13.764;2023-04-10T01:15:20;1.58;;;1.48;;
75737;SDS011;64356;45.638;13.764;2023-04-10T01:20:43;1.63;;;1.52;;
75737;SDS011;64356;45.638;13.764;2023-04-10T01:26:10;1.73;;;1.50;;
75737;SDS011;64356;45.638;13.764;2023-04-10T01:31:11;1.40;;;1.30;;
75737;SDS011;64356;45.638;13.764;2023-04-10T01:36:09;1.58;;;1.48;;
75737;SDS011;64356;45.638;13.764;2023-04-10T01:38:38;1.75;;;1.50;;
75737;SDS011;64356;45.638;13.764;2023-04-10T01:41:07;1.83;;;1.73;;
75737;SDS011;64356;45.638;13.764;2023-04-10T01:43:32;1.52;;;1.42;;
75737;SDS011;64356;45.638;13.764;2023-04-10T01:46:00;1.55;;;1.45;;
75737;SDS011;64356;45.638;13.764;2023-04-10T01:48:27;1.50;;;1.40;;
75737;SDS011;64356;45.638;13.764;2023-04-10T01:50:54;1.60;;;1.50;;
75737;SDS011;64356;45.638;13.764;2023-04-10T01:53:20;1.83;;;1.67;;
75737;SDS011;64356;45.638;13.764;2023-04-10T01:55:47;1.60;;;1.50;;
75737;SDS011;64356;45.638;13.764;2023-04-10T01:58:14;1.95;;;1.70;;
75737;SDS011;64356;45.638;13.764;2023-04-10T02:00:41;1.60;;;1.50;;
75737;SDS011;64356;45.638;13.764;2023-04-10T02:03:08;1.65;;;1.55;;
75737;SDS011;64356;45.638;13.764;2023-04-10T02:05:39;1.80;;;1.70;;
75737;SDS011;64356;45.638;13.764;2023-04-10T02:08:42;1.63;;;1.52;;
75737;SDS011;64356;45.638;13.764;2023-04-10T02:14:10;1.83;;;1.73;;
75737;SDS011;64356;45.638;13.764;2023-04-10T02:16:40;1.85;;;1.75;;
75737;SDS011;64356;45.638;13.764;2023-04-10T02:19:07;1.60;;;1.40;;
75737;SDS011;64356;45.638;13.764;2023-04-10T02:21:35;2.08;;;1.95;;
75737;SDS011;64356;45.638;13.764;2023-04-10T02:24:01;1.75;;;1.63;;
75737;SDS011;64356;45.638;13.764;2023-04-10T02:26:27;1.60;;;1.50;;
75737;SDS011;64356;45.638;13.764;2023-04-10T02:28:53;1.73;;;1.63;;
75737;SDS011;64356;45.638;13.764;2023-04-10T02:31:19;1.60;;;1.50;;
75737;SDS011;64356;45.638;13.764;2023-04-10T02:33:44;1.83;;;1.73;;
75737;SDS011;64356;45.638;13.764;2023-04-10T02:36:10;1.90;;;1.80;;
75737;SDS011;64356;45.638;13.764;2023-04-10T02:38:36;1.70;;;1.60;;
75737;SDS011;64356;45.638;13.764;2023-04-10T02:41:05;1.55;;;1.45;;
75737;SDS011;64356;45.638;13.764;2023-04-10T02:43:30;2.00;;;1.90;;
75737;SDS011;64356;45.638;13.764;2023-04-10T02:45:56;1.70;;;1.60;;
75737;SDS011;64356;45.638;13.764;2023-04-10T02:48:22;1.52;;;1.42;;
75737;SDS011;64356;45.638;13.764;2023-04-10T02:50:47;1.70;;;1.60;;
75737;SDS011;64356;45.638;13.764;2023-04-10T02:53:14;1.70;;;1.60;;
75737;SDS011;64356;45.638;13.764;2023-04-10T02:55:40;1.65;;;1.55;;
75737;SDS011;64356;45.638;13.764;2023-04-10T02:58:06;2.38;;;1.52;;
75737;SDS011;64356;45.638;13.764;2023-04-10T03:00:32;2.10;;;1.85;;
75737;SDS011;64356;45.638;13.764;2023-04-10T03:02:57;1.77;;;1.55;;
75737;SDS011;64356;45.638;13.764;2023-04-10T03:05:23;1.67;;;1.38;;
75737;SDS011;64356;45.638;13.764;2023-04-10T03:07:49;1.80;;;1.70;;
75737;SDS011;64356;45.638;13.764;2023-04-10T03:10:15;1.50;;;1.40;;
75737;SDS011;64356;45.638;13.764;2023-04-10T03:12:40;1.60;;;1.50;;
75737;SDS011;64356;45.638;13.764;2023-04-10T03:15:06;1.52;;;1.42;;
75737;SDS011;64356;45.638;13.764;2023-04-10T03:17:32;1.40;;;1.30;;
75737;SDS011;64356;45.638;13.764;2023-04-10T03:19:58;1.50;;;1.40;;
75737;SDS011;64356;45.638;13.764;2023-04-10T03:22:24;1.75;;;1.65;;
75737;SDS011;64356;45.638;13.764;2023-04-10T03:24:51;1.40;;;1.30;;
75737;SDS011;64356;45.638;13.764;2023-04-10T03:27:17;1.77;;;1.60;;
75737;SDS011;64356;45.638;13.764;2023-04-10T03:29:43;1.60;;;1.50;;
75737;SDS011;64356;45.638;13.764;2023-04-10T03:32:08;1.77;;;1.65;;
75737;SDS011;64356;45.638;13.764;2023-04-10T03:34:34;1.50;;;1.40;;
75737;SDS011;64356;45.638;13.764;2023-04-10T03:37:00;2.08;;;1.70;;
75737;SDS011;64356;45.638;13.764;2023-04-10T03:39:27;1.63;;;1.52;;
75737;SDS011;64356;45.638;13.764;2023-04-10T03:41:53;1.60;;;1.50;;
75737;SDS011;64356;45.638;13.764;2023-04-10T03:44:18;1.80;;;1.70;;
75737;SDS011;64356;45.638;13.764;2023-04-10T03:46:44;1.85;;;1.75;;
75737;SDS011;64356;45.638;13.764;2023-04-10T03:49:10;1.90;;;1.80;;
75737;SDS011;64356;45.638;13.764;2023-04-10T03:51:35;1.60;;;1.50;;
75737;SDS011;64356;45.638;13.764;2023-04-10T03:54:01;2.17;;;1.98;;
75737;SDS011;64356;45.638;13.764;2023-04-10T03:56:27;1.83;;;1.73;;
75737;SDS011;64356;45.638;13.764;2023-04-10T03:58:53;1.42;;;1.33;;
75737;SDS011;64356;45.638;13.764;2023-04-10T04:01:18;1.70;;;1.52;;
75737;SDS011;64356;45.638;13.764;2023-04-10T04:03:44;1.95;;;1.75;;
75737;SDS011;64356;45.638;13.764;2023-04-10T04:06:10;1.80;;;1.70;;
75737;SDS011;64356;45.638;13.764;2023-04-10T04:08:36;1.92;;;1.83;;
75737;SDS011;64356;45.638;13.764;2023-04-10T04:11:02;1.77;;;1.67;;
75737;SDS011;64356;45.638;13.764;2023-04-10T04:13:28;2.13;;;1.80;;
75737;SDS011;64356;45.638;13.764;2023-04-10T04:15:54;1.90;;;1.80;;
75737;SDS011;64356;45.638;13.764;2023-04-10T04:18:19;1.75;;;1.65;;
75737;SDS011;64356;45.638;13.764;2023-04-10T04:20:45;1.60;;;1.50;;
75737;SDS011;64356;45.638;13.764;2023-04-10T04:23:11;2.03;;;1.85;;
75737;SDS011;64356;45.638;13.764;2023-04-10T04:25:36;1.90;;;1.70;;
75737;SDS011;64356;45.638;13.764;2023-04-10T04:28:02;1.75;;;1.65;;
75737;SDS011;64356;45.638;13.764;2023-04-10T04:30:28;2.08;;;1.85;;
75737;SDS011;64356;45.638;13.764;2023-04-10T04:32:54;1.85;;;1.75;;
75737;SDS011;64356;45.638;13.764;2023-04-10T04:35:20;2.00;;;1.90;;
75737;SDS011;64356;45.638;13.764;2023-04-10T04:37:46;1.70;;;1.60;;
75737;SDS011;64356;45.638;13.764;2023-04-10T04:40:11;2.13;;;1.80;;
75737;SDS011;64356;45.638;13.764;2023-04-10T04:42:37;1.73;;;1.63;;
75737;SDS011;64356;45.638;13.764;2023-04-10T04:45:03;1.80;;;1.70;;
75737;SDS011;64356;45.638;13.764;2023-04-10T04:47:28;2.00;;;1.90;;
75737;SDS011;64356;45.638;13.764;2023-04-10T04:49:54;2.83;;;1.80;;
75737;SDS011;64356;45.638;13.764;2023-04-10T04:52:20;2.17;;;1.98;;
75737;SDS011;64356;45.638;13.764;2023-04-10T04:54:46;1.90;;;1.80;;
75737;SDS011;64356;45.638;13.764;2023-04-10T04:57:11;1.98;;;1.77;;
75737;SDS011;64356;45.638;13.764;2023-04-10T04:59:37;1.70;;;1.60;;
75737;SDS011;64356;45.638;13.764;2023-04-10T05:02:02;1.65;;;1.55;;
75737;SDS011;64356;45.638;13.764;2023-04-10T05:04:29;2.33;;;1.60;;
75737;SDS011;64356;45.638;13.764;2023-04-10T05:06:55;1.95;;;1.85;;
75737;SDS011;64356;45.638;13.764;2023-04-10T05:09:21;1.75;;;1.65;;
75737;SDS011;64356;45.638;13.764;2023-04-10T05:11:47;1.80;;;1.70;;
75737;SDS011;64356;45.638;13.764;2023-04-10T05:14:14;2.28;;;2.08;;
75737;SDS011;64356;45.638;13.764;2023-04-10T05:16:40;1.75;;;1.65;;
75737;SDS011;64356;45.638;13.764;2023-04-10T05:19:05;1.90;;;1.80;;
75737;SDS011;64356;45.638;13.764;2023-04-10T05:21:31;1.95;;;1.85;;
75737;SDS011;64356;45.638;13.764;2023-04-10T05:23:57;2.25;;;2.00;;
75737;SDS011;64356;45.638;13.764;2023-04-10T05:26:23;1.77;;;1.67;;
75737;SDS011;64356;45.638;13.764;2023-04-10T05:28:48;2.28;;;2.08;;
75737;SDS011;64356;45.638;13.764;2023-04-10T05:31:14;2.17;;;2.00;;
75737;SDS011;64356;45.638;13.764;2023-04-10T05:33:40;2.20;;;2.10;;
75737;SDS011;64356;45.638;13.764;2023-04-10T05:36:05;1.88;;;1.77;;
75737;SDS011;64356;45.638;13.764;2023-04-10T05:38:31;4.32;;;1.90;;
75737;SDS011;64356;45.638;13.764;2023-04-10T05:40:57;2.42;;;2.22;;
75737;SDS011;64356;45.638;13.764;2023-04-10T05:43:23;2.03;;;1.92;;
75737;SDS011;64356;45.638;13.764;2023-04-10T05:45:48;2.35;;;2.15;;
75737;SDS011;64356;45.638;13.764;2023-04-10T05:48:14;2.30;;;2.10;;
75737;SDS011;64356;45.638;13.764;2023-04-10T05:50:40;1.92;;;1.80;;
75737;SDS011;64356;45.638;13.764;2023-04-10T05:53:05;2.08;;;1.90;;
75737;SDS011;64356;45.638;13.764;2023-04-10T05:55:34;2.00;;;1.90;;
75737;SDS011;64356;45.638;13.764;2023-04-10T05:58:00;2.25;;;2.08;;
75737;SDS011;64356;45.638;13.764;2023-04-10T06:00:26;2.10;;;1.92;;
75737;SDS011;64356;45.638;13.764;2023-04-10T06:02:51;2.30;;;2.10;;
75737;SDS011;64356;45.638;13.764;2023-04-10T06:05:17;2.30;;;2.10;;
75737;SDS011;64356;45.638;13.764;2023-04-10T06:07:43;2.00;;;1.90;;
75737;SDS011;64356;45.638;13.764;2023-04-10T06:10:09;2.05;;;1.95;;
75737;SDS011;64356;45.638;13.764;2023-04-10T06:12:35;2.65;;;2.45;;
75737;SDS011;64356;45.638;13.764;2023-04-10T06:15:00;2.20;;;2.00;;
75737;SDS011;64356;45.638;13.764;2023-04-10T06:17:26;1.90;;;1.80;;
75737;SDS011;64356;45.638;13.764;2023-04-10T06:19:52;2.40;;;2.20;;
75737;SDS011;64356;45.638;13.764;2023-04-10T06:22:18;2.05;;;1.90;;
75737;SDS011;64356;45.638;13.764;2023-04-10T06:24:43;2.22;;;2.00;;
75737;SDS011;64356;45.638;13.764;2023-04-10T06:27:09;2.40;;;2.20;;
75737;SDS011;64356;45.638;13.764;2023-04-10T06:29:36;2.28;;;2.08;;
75737;SDS011;64356;45.638;13.764;2023-04-10T06:32:02;1.90;;;1.80;;
75737;SDS011;64356;45.638;13.764;2023-04-10T06:34:28;2.38;;;2.03;;
75737;SDS011;64356;45.638;13.764;2023-04-10T06:36:53;2.47;;;2.28;;
75737;SDS011;64356;45.638;13.764;2023-04-10T06:39:19;2.15;;;2.03;;
75737;SDS011;64356;45.638;13.764;2023-04-10T06:41:45;2.75;;;2.55;;
75737;SDS011;64356;45.638;13.764;2023-04-10T06:44:10;2.10;;;2.00;;
75737;SDS011;64356;45.638;13.764;2023-04-10T06:46:36;2.50;;;2.17;;
75737;SDS011;64356;45.638;13.764;2023-04-10T06:49:02;1.90;;;1.80;;
75737;SDS011;64356;45.638;13.764;2023-04-10T06:51:28;2.15;;;2.00;;
75737;SDS011;64356;45.638;13.764;2023-04-10T06:53:54;2.22;;;2.03;;
75737;SDS011;64356;45.638;13.764;2023-04-10T06:56:19;2.22;;;2.03;;
75737;SDS011;64356;45.638;13.764;2023-04-10T06:58:45;1.90;;;1.80;;
75737;SDS011;64356;45.638;13.764;2023-04-10T07:01:10;2.35;;;2.15;;
75737;SDS011;64356;45.638;13.764;2023-04-10T07:03:36;2.47;;;2.28;;
75737;SDS011;64356;45.638;13.764;2023-04-10T07:06:02;2.42;;;2.00;;
75737;SDS011;64356;45.638;13.764;2023-04-10T07:08:28;2.60;;;2.40;;
75737;SDS011;64356;45.638;13.764;2023-04-10T07:10:54;2.85;;;2.38;;
75737;SDS011;64356;45.638;13.764;2023-04-10T07:13:19;2.50;;;2.30;;
75737;SDS011;64356;45.638;13.764;2023-04-10T07:15:45;2.75;;;2.30;;
75737;SDS011;64356;45.638;13.764;2023-04-10T07:18:11;2.25;;;2.05;;
75737;SDS011;64356;45.638;13.764;2023-04-10T07:20:36;2.28;;;2.08;;
75737;SDS011;64356;45.638;13.764;2023-04-10T07:23:02;1.90;;;1.80;;
75737;SDS011;64356;45.638;13.764;2023-04-10T07:25:28;2.38;;;2.17;;
75737;SDS011;64356;45.638;13.764;2023-04-10T07:27:53;2.40;;;2.20;;
75737;SDS011;64356;45.638;13.764;2023-04-10T07:30:19;2.40;;;2.20;;
75737;SDS011;64356;45.638;13.764;2023-04-10T07:32:45;2.20;;;2.00;;
75737;SDS011;64356;45.638;13.764;2023-04-10T07:35:11;2.53;;;2.33;;
75737;SDS011;64356;45.638;13.764;2023-04-10T07:37:36;2.50;;;2.30;;
75737;SDS011;64356;45.638;13.764;2023-04-10T07:40:04;2.30;;;2.10;;
75737;SDS011;64356;45.638;13.764;2023-04-10T07:42:31;3.53;;;1.95;;
75737;SDS011;64356;45.638;13.764;2023-04-10T07:44:57;2.20;;;2.00;;
75737;SDS011;64356;45.638;13.764;2023-04-10T07:47:22;2.15;;;1.98;;
75737;SDS011;64356;45.638;13.764;2023-04-10T07:49:48;1.90;;;1.80;;
75737;SDS011;64356;45.638;13.764;2023-04-10T07:52:14;2.25;;;2.05;;
75737;SDS011;64356;45.638;13.764;2023-04-10T07:54:39;2.40;;;2.20;;
75737;SDS011;64356;45.638;13.764;2023-04-10T07:57:05;2.25;;;2.13;;
75737;SDS011;64356;45.638;13.764;2023-04-10T07:59:30;2.53;;;2.33;;
75737;SDS011;64356;45.638;13.764;2023-04-10T08:01:56;2.35;;;2.15;;
75737;SDS011;64356;45.638;13.764;2023-04-10T08:04:22;2.13;;;1.92;;
75737;SDS011;64356;45.638;13.764;2023-04-10T08:06:47;2.63;;;2.42;;
75737;SDS011;64356;45.638;13.764;2023-04-10T08:09:14;2.33;;;2.13;;
75737;SDS011;64356;45.638;13.764;2023-04-10T08:11:39;2.15;;;1.95;;
75737;SDS011;64356;45.638;13.764;2023-04-10T08:14:05;2.45;;;2.25;;
75737;SDS011;64356;45.638;13.764;2023-04-10T08:16:34;2.55;;;2.35;;
75737;SDS011;64356;45.638;13.764;2023-04-10T08:19:00;2.30;;;2.10;;
75737;SDS011;64356;45.638;13.764;2023-04-10T08:21:27;2.15;;;2.05;;
75737;SDS011;64356;45.638;13.764;2023-04-10T08:23:54;1.80;;;1.70;;
75737;SDS011;64356;45.638;13.764;2023-04-10T08:26:22;2.58;;;2.22;;
75737;SDS011;64356;45.638;13.764;2023-04-10T08:28:49;2.35;;;2.15;;
75737;SDS011;64356;45.638;13.764;2023-04-10T08:31:16;2.00;;;1.90;;
75737;SDS011;64356;45.638;13.764;2023-04-10T08:33:46;2.42;;;2.22;;
75737;SDS011;64356;45.638;13.764;2023-04-10T08:36:12;2.28;;;2.17;;
75737;SDS011;64356;45.638;13.764;2023-04-10T08:38:39;2.30;;;2.10;;
75737;SDS011;64356;45.638;13.764;2023-04-10T08:41:09;2.40;;;1.90;;
75737;SDS011;64356;45.638;13.764;2023-04-10T08:43:36;2.40;;;2.20;;
75737;SDS011;64356;45.638;13.764;2023-04-10T08:46:02;2.40;;;2.20;;
75737;SDS011;64356;45.638;13.764;2023-04-10T08:51:18;2.40;;;2.20;;
75737;SDS011;64356;45.638;13.764;2023-04-10T08:53:45;2.20;;;2.00;;
75737;SDS011;64356;45.638;13.764;2023-04-10T08:56:15;2.50;;;2.30;;
75737;SDS011;64356;45.638;13.764;2023-04-10T08:58:41;2.10;;;1.90;;
75737;SDS011;64356;45.638;13.764;2023-04-10T09:01:08;2.15;;;2.00;;
75737;SDS011;64356;45.638;13.764;2023-04-10T09:03:37;1.90;;;1.80;;
75737;SDS011;64356;45.638;13.764;2023-04-10T09:06:03;2.30;;;2.17;;
75737;SDS011;64356;45.638;13.764;2023-04-10T09:08:30;1.98;;;1.88;;
75737;SDS011;64356;45.638;13.764;2023-04-10T09:10:56;3.00;;;2.05;;
75737;SDS011;64356;45.638;13.764;2023-04-10T09:13:38;2.67;;;2.45;;
75737;SDS011;64356;45.638;13.764;2023-04-10T09:16:05;2.20;;;2.00;;
75737;SDS011;64356;45.638;13.764;2023-04-10T09:18:42;2.08;;;1.90;;
75737;SDS011;64356;45.638;13.764;2023-04-10T09:21:15;1.88;;;1.77;;
75737;SDS011;64356;45.638;13.764;2023-04-10T09:23:45;2.00;;;1.85;;
75737;SDS011;64356;45.638;13.764;2023-04-10T09:31:32;2.47;;;2.28;;
75737;SDS011;64356;45.638;13.764;2023-04-10T09:34:10;2.05;;;1.95;;
75737;SDS011;64356;45.638;13.764;2023-04-10T09:36:51;2.33;;;2.13;;
75737;SDS011;64356;45.638;13.764;2023-04-10T09:39:19;1.50;;;1.40;;
75737;SDS011;64356;45.638;13.764;2023-04-10T09:41:51;2.13;;;1.92;;
75737;SDS011;64356;45.638;13.764;2023-04-10T09:44:28;2.10;;;2.00;;
75737;SDS011;64356;45.638;13.764;2023-04-10T09:47:17;1.73;;;1.63;;
75737;SDS011;64356;45.638;13.764;2023-04-10T09:49:46;1.83;;;1.73;;
75737;SDS011;64356;45.638;13.764;2023-04-10T09:52:21;2.10;;;2.00;;
75737;SDS011;64356;45.638;13.764;2023-04-10T09:54:49;2.45;;;2.25;;
75737;SDS011;64356;45.638;13.764;2023-04-10T09:57:17;2.20;;;2.00;;
75737;SDS011;64356;45.638;13.764;2023-04-10T09:59:48;2.53;;;2.33;;
75737;SDS011;64356;45.638;13.764;2023-04-10T10:02:18;2.08;;;1.95;;
75737;SDS011;64356;45.638;13.764;2023-04-10T10:04:45;1.98;;;1.88;;
75737;SDS011;64356;45.638;13.764;2023-04-10T10:07:13;2.10;;;2.00;;
75737;SDS011;64356;45.638;13.764;2023-04-10T10:09:43;1.90;;;1.80;;
75737;SDS011;64356;45.638;13.764;2023-04-10T10:12:10;2.13;;;2.00;;
75737;SDS011;64356;45.638;13.764;2023-04-10T10:14:41;2.25;;;2.05;;
75737;SDS011;64356;45.638;13.764;2023-04-10T10:17:14;1.80;;;1.70;;
75737;SDS011;64356;45.638;13.764;2023-04-10T10:19:55;2.15;;;1.95;;
75737;SDS011;64356;45.638;13.764;2023-04-10T10:22:35;1.83;;;1.73;;
75737;SDS011;64356;45.638;13.764;2023-04-10T10:25:02;2.00;;;1.80;;
75737;SDS011;64356;45.638;13.764;2023-04-10T10:27:31;2.15;;;1.95;;
75737;SDS011;64356;45.638;13.764;2023-04-10T10:30:02;1.95;;;1.85;;
75737;SDS011;64356;45.638;13.764;2023-04-10T10:32:29;1.50;;;1.40;;
75737;SDS011;64356;45.638;13.764;2023-04-10T10:34:55;1.67;;;1.58;;
75737;SDS011;64356;45.638;13.764;2023-04-10T10:37:21;2.33;;;1.90;;
75737;SDS011;64356;45.638;13.764;2023-04-10T10:40:02;1.98;;;1.70;;
75737;SDS011;64356;45.638;13.764;2023-04-10T10:42:33;1.70;;;1.60;;
75737;SDS011;64356;45.638;13.764;2023-04-10T10:45:32;1.88;;;1.77;;
75737;SDS011;64356;45.638;13.764;2023-04-10T10:48:04;2.00;;;1.80;;
75737;SDS011;64356;45.638;13.764;2023-04-10T10:50:49;1.80;;;1.70;;
75737;SDS011;64356;45.638;13.764;2023-04-10T10:54:01;2.05;;;1.73;;
75737;SDS011;64356;45.638;13.764;2023-04-10T10:56:31;1.95;;;1.85;;
75737;SDS011;64356;45.638;13.764;2023-04-10T10:58:58;3.28;;;1.73;;
75737;SDS011;64356;45.638;13.764;2023-04-10T11:01:25;1.70;;;1.60;;
75737;SDS011;64356;45.638;13.764;2023-04-10T11:03:51;2.13;;;1.92;;
75737;SDS011;64356;45.638;13.764;2023-04-10T11:06:18;2.10;;;1.98;;
75737;SDS011;64356;45.638;13.764;2023-04-10T11:09:04;1.80;;;1.70;;
75737;SDS011;64356;45.638;13.764;2023-04-10T11:11:30;1.83;;;1.73;;
75737;SDS011;64356;45.638;13.764;2023-04-10T11:14:16;1.80;;;1.70;;
75737;SDS011;64356;45.638;13.764;2023-04-10T11:16:44;2.10;;;1.90;;
75737;SDS011;64356;45.638;13.764;2023-04-10T11:19:11;2.10;;;1.90;;
75737;SDS011;64356;45.638;13.764;2023-04-10T11:21:58;1.70;;;1.60;;
75737;SDS011;64356;45.638;13.764;2023-04-10T11:24:25;2.00;;;1.85;;
75737;SDS011;64356;45.638;13.764;2023-04-10T11:26:51;1.83;;;1.73;;
75737;SDS011;64356;45.638;13.764;2023-04-10T11:31:43;2.20;;;2.00;;
75737;SDS011;64356;45.638;13.764;2023-04-10T11:34:10;2.22;;;2.03;;
75737;SDS011;64356;45.638;13.764;2023-04-10T11:36:42;1.73;;;1.63;;
75737;SDS011;64356;45.638;13.764;2023-04-10T11:39:09;1.85;;;1.75;;
75737;SDS011;64356;45.638;13.764;2023-04-10T11:41:47;2.10;;;2.00;;
75737;SDS011;64356;45.638;13.764;2023-04-10T11:44:17;1.92;;;1.70;;
75737;SDS011;64356;45.638;13.764;2023-04-10T11:46:51;1.77;;;1.67;;
75737;SDS011;64356;45.638;13.764;2023-04-10T11:49:18;1.75;;;1.65;;
75737;SDS011;64356;45.638;13.764;2023-04-10T11:51:46;1.58;;;1.48;;
75737;SDS011;64356;45.638;13.764;2023-04-10T11:54:14;2.10;;;1.98;;
75737;SDS011;64356;45.638;13.764;2023-04-10T11:56:45;2.35;;;2.15;;
75737;SDS011;64356;45.638;13.764;2023-04-10T11:59:22;2.15;;;1.95;;
75737;SDS011;64356;45.638;13.764;2023-04-10T12:01:49;1.80;;;1.67;;
75737;SDS011;64356;45.638;13.764;2023-04-10T12:04:18;2.15;;;2.00;;
75737;SDS011;64356;45.638;13.764;2023-04-10T12:06:49;2.13;;;1.98;;
75737;SDS011;64356;45.638;13.764;2023-04-10T12:09:16;1.65;;;1.55;;
75737;SDS011;64356;45.638;13.764;2023-04-10T12:11:50;2.30;;;2.10;;
75737;SDS011;64356;45.638;13.764;2023-04-10T12:14:28;2.20;;;2.00;;
75737;SDS011;64356;45.638;13.764;2023-04-10T12:16:59;1.90;;;1.80;;
75737;SDS011;64356;45.638;13.764;2023-04-10T12:19:25;1.85;;;1.75;;
75737;SDS011;64356;45.638;13.764;2023-04-10T12:21:51;2.00;;;1.80;;
75737;SDS011;64356;45.638;13.764;2023-04-10T12:29:45;1.90;;;1.80;;
75737;SDS011;64356;45.638;13.764;2023-04-10T12:32:12;1.60;;;1.50;;
75737;SDS011;64356;45.638;13.764;2023-04-10T12:34:38;1.85;;;1.75;;
75737;SDS011;64356;45.638;13.764;2023-04-10T12:37:04;1.90;;;1.80;;
75737;SDS011;64356;45.638;13.764;2023-04-10T12:39:30;2.45;;;2.05;;
75737;SDS011;64356;45.638;13.764;2023-04-10T12:44:53;2.23;;;2.03;;
75737;SDS011;64356;45.638;13.764;2023-04-10T12:47:19;2.10;;;2.00;;
75737;SDS011;64356;45.638;13.764;2023-04-10T12:50:02;1.80;;;1.70;;
75737;SDS011;64356;45.638;13.764;2023-04-10T12:52:29;2.42;;;2.22;;
75737;SDS011;64356;45.638;13.764;2023-04-10T12:55:06;1.83;;;1.73;;
75737;SDS011;64356;45.638;13.764;2023-04-10T12:57:40;1.75;;;1.65;;
75737;SDS011;64356;45.638;13.764;2023-04-10T13:00:07;2.33;;;2.00;;
75737;SDS011;64356;45.638;13.764;2023-04-10T13:02:35;1.67;;;1.58;;
75737;SDS011;64356;45.638;13.764;2023-04-10T13:05:02;2.42;;;1.77;;
75737;SDS011;64356;45.638;13.764;2023-04-10T13:07:28;2.33;;;1.85;;
75737;SDS011;64356;45.638;13.764;2023-04-10T13:09:54;1.70;;;1.60;;
75737;SDS011;64356;45.638;13.764;2023-04-10T13:12:20;2.00;;;1.90;;
75737;SDS011;64356;45.638;13.764;2023-04-10T13:14:46;2.10;;;2.00;;
75737;SDS011;64356;45.638;13.764;2023-04-10T13:17:11;2.22;;;1.98;;
75737;SDS011;64356;45.638;13.764;2023-04-10T13:19:37;1.80;;;1.70;;
75737;SDS011;64356;45.638;13.764;2023-04-10T13:22:03;1.70;;;1.60;;
75737;SDS011;64356;45.638;13.764;2023-04-10T13:24:29;2.08;;;1.88;;
75737;SDS011;64356;45.638;13.764;2023-04-10T13:26:55;2.05;;;1.90;;
75737;SDS011;64356;45.638;13.764;2023-04-10T13:29:22;1.92;;;1.83;;
75737;SDS011;64356;45.638;13.764;2023-04-10T13:31:48;1.60;;;1.50;;
75737;SDS011;64356;45.638;13.764;2023-04-10T13:34:14;1.70;;;1.60;;
75737;SDS011;64356;45.638;13.764;2023-04-10T13:36:40;1.80;;;1.70;;
75737;SDS011;64356;45.638;13.764;2023-04-10T13:39:06;2.17;;;2.00;;
75737;SDS011;64356;45.638;13.764;2023-04-10T13:41:32;2.38;;;2.13;;
75737;SDS011;64356;45.638;13.764;2023-04-10T13:43:58;2.10;;;1.98;;
75737;SDS011;64356;45.638;13.764;2023-04-10T13:46:24;1.85;;;1.75;;
75737;SDS011;64356;45.638;13.764;2023-04-10T13:48:50;1.90;;;1.80;;
75737;SDS011;64356;45.638;13.764;2023-04-10T13:51:15;1.80;;;1.70;;
75737;SDS011;64356;45.638;13.764;2023-04-10T13:53:41;2.05;;;1.95;;
75737;SDS011;64356;45.638;13.764;2023-04-10T13:56:07;1.73;;;1.63;;
75737;SDS011;64356;45.638;13.764;2023-04-10T13:58:33;1.70;;;1.60;;
75737;SDS011;64356;45.638;13.764;2023-04-10T14:00:59;1.70;;;1.60;;
75737;SDS011;64356;45.638;13.764;2023-04-10T14:03:25;1.75;;;1.65;;
75737;SDS011;64356;45.638;13.764;2023-04-10T14:05:52;1.73;;;1.63;;
75737;SDS011;64356;45.638;13.764;2023-04-10T14:08:18;1.90;;;1.80;;
75737;SDS011;64356;45.638;13.764;2023-04-10T14:10:44;1.80;;;1.70;;
75737;SDS011;64356;45.638;13.764;2023-04-10T14:13:14;1.73;;;1.63;;
75737;SDS011;64356;45.638;13.764;2023-04-10T14:15:41;1.80;;;1.70;;
75737;SDS011;64356;45.638;13.764;2023-04-10T14:18:06;1.77;;;1.67;;
75737;SDS011;64356;45.638;13.764;2023-04-10T14:20:32;2.20;;;1.80;;
75737;SDS011;64356;45.638;13.764;2023-04-10T14:22:58;1.90;;;1.80;;
75737;SDS011;64356;45.638;13.764;2023-04-10T14:25:24;1.80;;;1.70;;
75737;SDS011;64356;45.638;13.764;2023-04-10T14:27:49;1.60;;;1.50;;
75737;SDS011;64356;45.638;13.764;2023-04-10T14:30:15;1.85;;;1.75;;
75737;SDS011;64356;45.638;13.764;2023-04-10T14:32:41;2.35;;;2.15;;
75737;SDS011;64356;45.638;13.764;2023-04-10T14:35:07;3.78;;;1.55;;
75737;SDS011;64356;45.638;13.764;2023-04-10T14:37:33;1.98;;;1.88;;
75737;SDS011;64356;45.638;13.764;2023-04-10T14:39:59;1.70;;;1.60;;
75737;SDS011;64356;45.638;13.764;2023-04-10T14:42:25;1.77;;;1.67;;
75737;SDS011;64356;45.638;13.764;2023-04-10T14:44:51;4.25;;;1.80;;
75737;SDS011;64356;45.638;13.764;2023-04-10T14:47:17;2.03;;;1.92;;
75737;SDS011;64356;45.638;13.764;2023-04-10T14:49:42;1.50;;;1.40;;
75737;SDS011;64356;45.638;13.764;2023-04-10T14:52:08;2.03;;;1.88;;
75737;SDS011;64356;45.638;13.764;2023-04-10T14:54:34;1.55;;;1.45;;
75737;SDS011;64356;45.638;13.764;2023-04-10T14:56:59;2.08;;;1.90;;
75737;SDS011;64356;45.638;13.764;2023-04-10T14:59:26;2.40;;;1.70;;
75737;SDS011;64356;45.638;13.764;2023-04-10T15:01:52;1.67;;;1.58;;
75737;SDS011;64356;45.638;13.764;2023-04-10T15:04:18;2.05;;;1.85;;
75737;SDS011;64356;45.638;13.764;2023-04-10T15:06:44;2.25;;;1.70;;
75737;SDS011;64356;45.638;13.764;2023-04-10T15:09:10;2.00;;;1.90;;
75737;SDS011;64356;45.638;13.764;2023-04-10T15:11:36;1.80;;;1.70;;
75737;SDS011;64356;45.638;13.764;2023-04-10T15:14:01;2.25;;;2.00;;